• Join FlightAware (Why Join?)
  • Login
  • US Flag 
03:48AM EDT


 

Airport Tracker/Info


-or-


 

Live Flight TrackerFlight Track Log ✈ SKW5652 ✈ 19-Jul-2013 ✈ KDEN - KEUG

Flight Track Log - Related Links

Times and Time Zones

All times are in EDT time to prevent confusion due to time zone crossing. See the SKW5652 flight status page for this flight to view local times or setup timezone preferences in your user account.

Time Position Orientation Groundspeed Altitude Reporting Facility
EDT Latitude Longitude Course Direction KTS MPH feet Rate Location/Type
05:22PM 39.9500 -104.6833 346° North 223 257 7,600  Level Denver TRACON
05:23PM 40.2848 -104.8071 347° North  Level FlightAware Approximate
05:23PM 40.0333 -104.6667 North 272 313 8,900  Level Denver TRACON
05:24PM 40.3937 -104.8423 346° North  Level FlightAware Approximate
05:24PM 40.1144 -104.6731 357° North 291 335 10,800  Level Denver Center
05:25PM 40.5024 -104.8786 346° North  Level FlightAware Approximate
05:25PM 40.2064 -104.6978 348° North 311 358 12,600  Level Denver Center
05:26PM 40.6119 -104.9105 348° North  Level FlightAware Approximate
05:26PM 40.2925 -104.7211 348° North 317 365 14,200  Level Denver Center
05:27PM 40.7208 -104.9458 346° North  Level FlightAware Approximate
05:27PM 40.3914 -104.7464 349° North 338 389 15,900  Level Denver Center
05:28PM 40.4794 -104.7717 348° North 325 374 17,200 1,140 Climbing Denver Center
05:29PM 40.5808 -104.7958 350° North 344 396 18,300 840 Climbing Denver Center
05:30PM 40.6750 -104.8247 347° North 352 405 19,000 660 Climbing Denver Center
05:31PM 40.7650 -104.8436 351° North 339 390 19,700 780 Climbing Denver Center
05:32PM 40.8817 -104.8964 341° North 366 421 20,700 840 Climbing Denver Center
05:33PM 40.9794 -104.9447 340° North 374 430 21,500 720 Climbing Denver Center
05:34PM 41.0772 -104.9914 340° North 376 433 22,300 720 Climbing Denver Center
05:35PM 41.1714 -105.0375 340° North 378 435 23,100 780 Climbing Denver Center
05:36PM 41.2811 -105.0931 339° North 375 432 24,000 720 Climbing Denver Center
05:37PM 41.3764 -105.1417 339° North 381 438 24,700 660 Climbing Denver Center
05:38PM 41.4872 -105.1958 340° North 381 438 25,400 540 Climbing Denver Center
05:39PM 41.5647 -105.2800 321° Northwest 395 455 25,900 480 Climbing Denver Center
05:40PM 41.5819 -105.4356 278° West 377 434 26,400 480 Climbing Denver Center
05:41PM 41.5942 -105.5694 277° West 379 436 26,900 480 Climbing Denver Center
05:42PM 41.6089 -105.7286 277° West 384 442 27,500 480 Climbing Denver Center
05:43PM 41.6197 -105.8656 276° West 387 445 28,000 480 Climbing Denver Center
05:44PM 41.6344 -106.0253 277° West 389 448 28,500 300 Climbing Denver Center
05:45PM 41.6467 -106.1658 277° West 395 455 28,700 240 Climbing Denver Center
05:46PM 41.6594 -106.3311 276° West 401 461 29,100 480 Climbing Denver Center
05:48PM 41.6719 -106.4725 277° West 401 461 29,700 480 Climbing Denver Center
05:49PM 41.6831 -106.6128 276° West 392 451 30,200 480 Climbing Denver Center
05:50PM 41.6967 -106.7747 276° West 391 450 30,800 480 Climbing Denver Center
05:51PM 41.7064 -106.9108 276° West 386 444 31,300 480 Climbing Denver Center
05:52PM 41.7172 -107.0675 275° West 380 437 31,800 300 Climbing Denver Center
05:53PM 41.7286 -107.2019 277° West 381 438 32,000 60 Climbing Denver Center
05:54PM 41.7397 -107.3628 275° West 389 448 32,000  Level Denver Center
05:55PM 41.7486 -107.4778 276° West 388 447 32,000  Level Salt Lake Center
05:55PM 41.7486 -107.4778 276° West 391 450 32,000  Level Denver Center
05:56PM 41.7692 -107.6383 280° West 391 450 32,000  Level Salt Lake Center
05:57PM 41.8033 -107.7706 289° West 392 451 32,000  Level Salt Lake Center
05:58PM 41.8403 -107.9225 288° West 387 445 32,000  Level Salt Lake Center
05:59PM 41.8706 -108.0478 288° West 374 430 32,000  Level Salt Lake Center
06:00PM 41.9058 -108.1967 288° West 375 432 32,000  Level Salt Lake Center
06:01PM 41.9369 -108.3261 288° West 379 436 32,000  Level Salt Lake Center
06:02PM 41.9731 -108.4758 288° West 379 436 32,000  Level Salt Lake Center
06:03PM 42.0025 -108.6047 287° West 378 435 32,000  Level Salt Lake Center
06:04PM 42.0381 -108.7569 288° West 382 440 32,000  Level Salt Lake Center
06:05PM 42.0689 -108.8892 287° West 387 445 32,000  Level Salt Lake Center
06:06PM 42.1042 -109.0425 287° West 387 445 32,000  Level Salt Lake Center
06:07PM 42.1342 -109.1747 287° West 387 445 32,000  Level Salt Lake Center
06:10PM 42.2092 -109.5101 287° West  Level FlightAware Approximate
06:10PM 42.2339 -109.6164 287° West 385 443 32,000  Level Salt Lake Center
06:11PM 42.2636 -109.7489 287° West 387 445 32,000  Level Salt Lake Center
06:12PM 42.2978 -109.9033 287° West 386 444 32,000  Level Salt Lake Center
06:13PM 42.3269 -110.0367 287° West 386 444 32,000  Level Salt Lake Center
06:14PM 42.3608 -110.1906 287° West 384 442 32,000  Level Salt Lake Center
06:15PM 42.3903 -110.3225 287° West 384 442 32,000  Level Salt Lake Center
06:16PM 42.4242 -110.4783 286° West 386 444 32,000  Level Salt Lake Center
06:17PM 42.4519 -110.6106 286° West 384 442 32,000  Level Salt Lake Center
06:18PM 42.4861 -110.7658 287° West 385 443 32,000  Level Salt Lake Center
06:19PM 42.5147 -110.8989 286° West 385 443 32,000  Level Salt Lake Center
06:20PM 42.5450 -111.0486 285° West 386 444 32,000  Level Salt Lake Center
06:21PM 42.5742 -111.1872 286° West 385 443 32,000  Level Salt Lake Center
06:23PM 42.6036 -111.3264 286° West 386 444 32,000  Level Salt Lake Center
06:24PM 42.6325 -111.4661 286° West 386 444 32,000  Level Salt Lake Center
06:25PM 42.6608 -111.6056 285° West 387 445 32,000  Level Salt Lake Center
06:26PM 42.6950 -111.7719 286° West 385 443 32,000  Level Salt Lake Center
06:27PM 42.7236 -111.9128 286° West 382 440 32,000  Level Salt Lake Center
06:28PM 42.7511 -112.0456 286° West 381 438 32,000  Level Salt Lake Center
06:29PM 42.7814 -112.1997 285° West 378 435 32,000  Level Salt Lake Center
06:30PM 42.8078 -112.3317 285° West 376 433 32,000  Level Salt Lake Center
06:31PM 42.8386 -112.4869 285° West 377 434 32,000  Level Salt Lake Center
06:32PM 42.8647 -112.6194 285° West 377 434 32,000  Level Salt Lake Center
06:33PM 42.8914 -112.7506 286° West 376 433 32,000  Level Salt Lake Center
06:34PM 42.9233 -112.9058 286° West 379 436 32,000  Level Salt Lake Center
06:35PM 42.9506 -113.0378 286° West 376 433 32,000  Level Salt Lake Center
06:36PM 42.9828 -113.1931 286° West 381 438 32,000  Level Salt Lake Center
06:37PM 43.0103 -113.3269 286° West 382 440 32,000  Level Salt Lake Center
06:38PM 43.0419 -113.4819 286° West 379 436 32,000  Level Salt Lake Center
06:39PM 43.0700 -113.6172 286° West 384 442 32,000  Level Salt Lake Center
06:40PM 43.0992 -113.7719 285° West 379 436 32,000  Level Salt Lake Center
06:41PM 43.1225 -113.9033 284° West 388 447 32,000  Level Salt Lake Center
06:42PM 43.1508 -114.0433 286° West 385 443 32,000  Level Salt Lake Center
06:43PM 43.1789 -114.1828 285° West 382 440 32,000  Level Salt Lake Center
06:44PM 43.2117 -114.3389 286° West 385 443 32,000  Level Salt Lake Center
06:45PM 43.2411 -114.4956 285° West 382 440 32,000  Level Salt Lake Center
06:46PM 43.2464 -114.5185 285° West  Level FlightAware Approximate
06:46PM 43.2672 -114.6311 285° West 383 441 32,000  Level Salt Lake Center
06:47PM 43.2969 -114.7875 285° West 378 435 32,000  Level Salt Lake Center
06:48PM 43.3225 -114.9239 284° West 383 441 32,000  Level Salt Lake Center
06:49PM 43.3478 -115.0603 284° West 384 442 32,000  Level Salt Lake Center
06:51PM 43.3769 -115.2179 284° West  Level FlightAware Approximate
06:52PM 43.4328 -115.5189 284° West 386 444 32,000  Level Salt Lake Center
06:54PM 43.4510 -115.6655 280° West  Level Estimated
06:56PM 43.5117 -115.9622 280° West 392 451 32,000  Level Salt Lake Center
06:57PM 43.5358 -116.1008 284° West 389 448 32,000  Level Salt Lake Center
06:58PM 43.5496 -116.1809 284° West  Level FlightAware Approximate
06:58PM 43.5639 -116.2636 283° West 389 448 32,000  Level Salt Lake Center
06:59PM 43.5900 -116.4281 282° West 392 451 32,000  Level Salt Lake Center
07:00PM 43.6122 -116.5689 282° West 391 450 32,000  Level Salt Lake Center
07:01PM 43.5675 -116.6450 280° West  Level Estimated
07:01PM 43.6344 -116.7106 282° West 392 451 32,000  Level Salt Lake Center
07:02PM 43.6600 -116.8761 282° West 393 452 32,000  Level Salt Lake Center
07:03PM 43.6817 -117.0186 282° West 395 455 32,000  Level Salt Lake Center
07:04PM 43.7072 -117.1839 282° West 391 450 32,000  Level Salt Lake Center
07:05PM 43.7289 -117.3258 282° West 394 453 32,000  Level Salt Lake Center
07:06PM 43.7542 -117.4917 282° West 394 453 32,000  Level Salt Lake Center
07:07PM 43.7750 -117.6342 281° West 394 453 32,000  Level Salt Lake Center
07:08PM 43.7950 -117.7753 281° West 392 451 32,000  Level Salt Lake Center
07:09PM 43.8203 -117.9436 282° West 398 458 32,000  Level Salt Lake Center
07:10PM 43.8408 -118.0867 281° West 396 456 32,000  Level Salt Lake Center
07:11PM 43.8639 -118.2531 281° West 394 453 32,000  Level Salt Lake Center
07:12PM 43.8814 -118.3775 281° West 392 451 32,000  Level Salt Lake Center
07:13PM 43.9039 -118.5361 281° West 390 449 32,000  Level Seattle Center
07:14PM 43.9272 -118.7006 281° West 389 448 32,000  Level Seattle Center
07:15PM 43.9456 -118.8411 280° West 387 445 32,000  Level Seattle Center
07:16PM 43.9672 -118.9942 281° West 387 445 32,000  Level Seattle Center
07:17PM 43.9781 -119.1425 276° West 388 447 32,000  Level Seattle Center
07:18PM 43.9864 -119.2939 274° West 391 450 32,000  Level Seattle Center
07:19PM 43.9942 -119.4450 274° West 391 450 32,000  Level Seattle Center
07:20PM 44.0011 -119.5986 274° West 396 456 32,000  Level Seattle Center
07:21PM 44.0078 -119.7514 274° West 397 457 32,000  Level Seattle Center
07:22PM 44.0156 -119.9028 274° West 393 452 32,000  Level Seattle Center
07:23PM 44.0231 -120.0547 274° West 393 452 32,000  Level Seattle Center
07:24PM 44.0289 -120.2061 273° West 393 452 32,000  Level Seattle Center
07:25PM 44.0356 -120.3597 274° West 397 457 32,000  Level Seattle Center
07:26PM 44.0406 -120.5111 273° West 393 452 32,000  Level Seattle Center
07:27PM 44.0475 -120.6639 274° West 396 456 32,000  Level Seattle Center
07:28PM 44.0547 -120.8467 273° West 395 455 32,000  Level Seattle Center
07:29PM 44.0589 -120.9986 272° West 394 453 32,000  Level Seattle Center
07:30PM 44.0650 -121.1544 273° West 401 461 32,000  Level Seattle Center
07:31PM 44.0717 -121.3069 274° West 396 456 32,000 -540 Level Seattle Center
07:32PM 44.0772 -121.4592 273° West 393 452 30,900 -2,040 Descending Seattle Center
07:33PM 44.0817 -121.6061 272° West 384 442 27,900 -2,940 Descending Seattle Center
07:34PM 44.0867 -121.7539 273° West 383 441 25,000 -2,940 Descending Seattle Center
07:35PM 44.0917 -121.9019 273° West 372 428 22,000 -2,880 Descending Seattle Center
07:36PM 44.0950 -122.0414 272° West 361 415 19,100 -2,820 Descending Seattle Center
07:38PM 44.0986 -122.1789 272° West 356 410 16,300 -2,700 Descending Seattle Center
07:39PM 44.1019 -122.3108 272° West 344 396 13,700 -2,520 Descending Seattle Center
07:40PM 44.1061 -122.4392 273° West 332 382 11,200 -2,040 Descending Seattle Center
07:41PM 44.1117 -122.5567 274° West 307 353 9,600 -1,680 Descending Seattle Center
07:42PM 44.1108 -122.6878 270° West 285 328 7,800 -1,500 Descending Seattle Center
07:43PM 44.1003 -122.7914 262° West 274 315 6,600 -1,080 Descending Seattle Center
07:44PM 44.0919 -122.8869 263° West 257 296 5,600 -1,020 Descending Seattle Center
07:45PM 44.0806 -122.9778 260° West 243 280 4,600 -1,020 Descending Seattle Center
07:46PM 44.0675 -123.0675 259° West 238 274 3,600 -1,020 Descending Seattle Center